createdAt,value
2023-07-21T00:00:37.639Z,13.3
2023-07-21T00:05:23.790Z,13.1
2023-07-21T00:10:26.299Z,13.0
2023-07-21T00:15:33.081Z,13.0
2023-07-21T00:20:22.481Z,12.9
2023-07-21T00:25:26.922Z,12.8
2023-07-21T00:30:32.720Z,12.7
2023-07-21T00:35:21.720Z,12.6
2023-07-21T00:40:29.134Z,12.5
2023-07-21T00:45:16.943Z,12.5
2023-07-21T00:50:22.893Z,12.4
2023-07-21T00:55:29.922Z,12.4
2023-07-21T01:00:18.368Z,12.4
2023-07-21T01:05:24.668Z,12.3
2023-07-21T01:10:30.458Z,12.2
2023-07-21T01:15:19.436Z,12.2
2023-07-21T01:20:25.865Z,12.2
2023-07-21T01:25:30.890Z,12.1
2023-07-21T01:30:19.994Z,12.0
2023-07-21T01:35:27.173Z,11.8
2023-07-21T01:40:32.412Z,11.7
2023-07-21T01:45:21.133Z,11.7
2023-07-21T01:50:27.158Z,11.7
2023-07-21T01:55:33.245Z,11.5
2023-07-21T02:00:25.810Z,11.4
2023-07-21T02:05:27.884Z,11.4
2023-07-21T02:10:16.629Z,11.4
2023-07-21T02:15:23.692Z,11.4
2023-07-21T02:20:30.963Z,11.4
2023-07-21T02:25:18.492Z,11.4
2023-07-21T02:30:24.391Z,11.5
2023-07-21T02:35:31.454Z,11.4
2023-07-21T02:40:20.460Z,11.4
2023-07-21T02:45:25.632Z,11.4
2023-07-21T02:50:31.674Z,11.3
2023-07-21T02:55:21.709Z,11.3
2023-07-21T03:00:27.653Z,11.3
2023-07-21T03:05:32.743Z,11.3
2023-07-21T03:10:21.208Z,11.3
2023-07-21T03:15:28.198Z,11.2
2023-07-21T03:20:34.747Z,11.1
2023-07-21T03:25:21.764Z,11.1
2023-07-21T03:30:27.792Z,11.1
2023-07-21T03:35:17.183Z,11.2
2023-07-21T03:40:23.233Z,11.2
2023-07-21T03:45:28.968Z,11.2
2023-07-21T03:50:18.326Z,11.2
2023-07-21T03:55:24.040Z,11.2
2023-07-21T04:00:34.298Z,11.2
2023-07-21T04:05:20.177Z,11.1
2023-07-21T04:10:25.638Z,11.1
2023-07-21T04:15:31.616Z,11.1
2023-07-21T04:20:21.450Z,11.1
2023-07-21T04:25:26.392Z,11.1
2023-07-21T04:30:32.481Z,11.0
2023-07-21T04:35:21.361Z,11.1
2023-07-21T04:40:28.955Z,11.5
2023-07-21T04:45:34.284Z,11.9
2023-07-21T04:50:22.506Z,12.0
2023-07-21T04:55:28.609Z,12.2
2023-07-21T05:00:18.555Z,12.5
2023-07-21T05:05:22.992Z,12.9
2023-07-21T05:10:29.061Z,13.1
2023-07-21T05:15:18.094Z,13.2
2023-07-21T05:20:26.413Z,13.4
2023-07-21T05:25:29.847Z,13.5
2023-07-21T05:30:18.893Z,13.6
2023-07-21T05:35:24.901Z,13.8
2023-07-21T05:40:32.868Z,14.0
2023-07-21T05:45:22.402Z,14.2
2023-07-21T05:50:26.080Z,14.1
2023-07-21T05:55:32.098Z,15.0
2023-07-21T06:00:24.043Z,15.3
2023-07-21T06:05:26.551Z,15.7
2023-07-21T06:10:34.852Z,15.9
2023-07-21T06:15:21.630Z,16.1
2023-07-21T06:20:29.676Z,16.2
2023-07-21T06:25:17.119Z,16.6
2023-07-21T06:30:23.130Z,16.7
2023-07-21T06:35:29.187Z,16.8
2023-07-21T06:40:20.725Z,16.7
2023-07-21T06:45:24.396Z,16.6
2023-07-21T06:50:30.317Z,16.5
2023-07-21T06:55:19.551Z,16.8
2023-07-21T07:00:27.246Z,17.2
2023-07-21T07:05:30.847Z,17.5
2023-07-21T07:10:19.909Z,17.6
2023-07-21T07:15:28.396Z,17.5
2023-07-21T07:20:33.912Z,17.5
2023-07-21T07:25:21.302Z,17.3
2023-07-21T07:30:30.482Z,17.4
2023-07-21T07:35:33.546Z,17.5
2023-07-21T07:40:22.902Z,17.6
2023-07-21T07:45:28.514Z,17.8
2023-07-21T07:50:17.609Z,17.9
2023-07-21T07:55:24.727Z,17.9
2023-07-21T08:00:33.039Z,18.0
2023-07-21T08:05:18.428Z,17.9
2023-07-21T08:10:24.260Z,18.0
2023-07-21T08:15:30.220Z,18.5
2023-07-21T08:20:19.451Z,18.6
2023-07-21T08:25:24.521Z,18.6
2023-07-21T08:30:35.973Z,18.6
2023-07-21T08:35:19.711Z,18.7
2023-07-21T08:40:26.172Z,18.8
2023-07-21T08:45:33.506Z,18.7
2023-07-21T08:50:21.671Z,18.6
2023-07-21T08:55:27.626Z,19.0
2023-07-21T09:00:35.068Z,19.0
2023-07-21T09:05:22.743Z,19.0
2023-07-21T09:10:29.234Z,19.0
2023-07-21T09:15:17.415Z,19.4
2023-07-21T09:20:24.494Z,19.8
2023-07-21T09:25:29.242Z,19.9
2023-07-21T09:30:18.253Z,20.4
2023-07-21T09:35:24.610Z,21.1
2023-07-21T09:40:30.777Z,21.5
2023-07-21T09:45:19.487Z,22.0
2023-07-21T09:50:25.494Z,22.3
2023-07-21T09:55:31.597Z,22.4
2023-07-21T10:00:24.513Z,22.5
2023-07-21T10:05:27.194Z,22.5
2023-07-21T10:10:33.239Z,22.3
2023-07-21T10:15:22.725Z,23.1
2023-07-21T10:20:30.504Z,22.7
2023-07-21T10:25:21.543Z,23.1
2023-07-21T10:30:24.007Z,24.1
2023-07-21T10:35:30.158Z,23.9
2023-07-21T10:40:29.926Z,23.9
2023-07-21T10:45:24.322Z,24.0
2023-07-21T10:50:30.985Z,23.8
2023-07-21T10:55:20.026Z,23.6
2023-07-21T11:00:25.644Z,23.7
2023-07-21T11:05:31.548Z,23.6
2023-07-21T11:10:20.435Z,23.7
2023-07-21T11:15:27.384Z,23.7
2023-07-21T11:20:33.470Z,24.6
2023-07-21T11:25:21.102Z,24.8
2023-07-21T11:30:27.209Z,24.2
2023-07-21T11:35:33.571Z,23.8
2023-07-21T11:40:23.613Z,23.9
2023-07-21T11:45:28.500Z,24.5
2023-07-21T11:50:17.427Z,24.1
2023-07-21T11:55:23.538Z,24.3
2023-07-21T12:00:34.147Z,24.3
2023-07-21T12:05:20.880Z,24.0
2023-07-21T12:10:24.681Z,25.1
2023-07-21T12:15:30.334Z,25.3
2023-07-21T12:20:19.384Z,25.4
2023-07-21T12:25:25.642Z,26.2
2023-07-21T12:30:30.884Z,25.8
2023-07-21T12:35:19.862Z,25.5
2023-07-21T12:40:26.557Z,25.9
2023-07-21T12:45:31.864Z,25.5
2023-07-21T12:50:20.864Z,25.2
2023-07-21T12:55:26.970Z,24.9
2023-07-21T13:00:35.271Z,24.8
2023-07-21T13:05:22.952Z,24.0
2023-07-21T13:10:28.394Z,23.6
2023-07-21T13:15:17.605Z,24.0
2023-07-21T13:20:24.132Z,24.6
2023-07-21T13:25:28.872Z,25.4
2023-07-21T13:30:18.804Z,25.3
2023-07-21T13:35:23.893Z,24.5
2023-07-21T13:40:30.333Z,24.6
2023-07-21T13:45:19.042Z,24.2
2023-07-21T13:50:25.093Z,24.5
2023-07-21T13:55:31.163Z,24.2
2023-07-21T14:00:25.596Z,24.3
2023-07-21T14:05:25.806Z,24.3
2023-07-21T14:10:31.621Z,24.3
2023-07-21T14:15:20.638Z,24.7
2023-07-21T14:20:28.710Z,25.1
2023-07-21T14:25:17.964Z,24.2
2023-07-21T14:30:22.144Z,24.4
2023-07-21T14:35:28.129Z,24.4
2023-07-21T14:40:18.082Z,25.1
2023-07-21T14:45:23.351Z,25.0
2023-07-21T14:50:29.341Z,24.6
2023-07-21T14:55:18.813Z,24.5
2023-07-21T15:00:26.919Z,24.8
2023-07-21T15:05:30.847Z,24.1
2023-07-21T15:10:18.880Z,24.7
2023-07-21T15:15:24.921Z,24.4
2023-07-21T15:20:33.038Z,24.6
2023-07-21T15:25:19.633Z,24.8
2023-07-21T15:30:25.625Z,24.5
2023-07-21T15:35:31.683Z,24.4
2023-07-21T15:40:22.675Z,24.0
2023-07-21T15:45:26.882Z,23.8
2023-07-21T15:50:32.804Z,23.8
2023-07-21T15:55:21.862Z,23.9
2023-07-21T16:00:33.916Z,24.1
2023-07-21T16:05:21.665Z,24.0
2023-07-21T16:10:23.542Z,23.5
2023-07-21T16:15:30.336Z,23.1
2023-07-21T16:20:20.504Z,23.2
2023-07-21T16:25:23.876Z,23.7
2023-07-21T16:30:29.869Z,23.3
2023-07-21T16:35:18.945Z,22.8
2023-07-21T16:40:27.589Z,23.0
2023-07-21T16:45:31.114Z,22.7
2023-07-21T16:50:20.109Z,22.7
2023-07-21T16:55:26.201Z,22.5
2023-07-21T17:00:33.211Z,22.6
2023-07-21T17:05:31.613Z,22.4
2023-07-21T17:10:26.670Z,22.3
2023-07-21T17:15:32.711Z,21.6
2023-07-21T17:20:23.622Z,20.7
2023-07-21T17:25:28.038Z,20.4
2023-07-21T17:30:17.247Z,19.8
2023-07-21T17:35:23.190Z,19.4
2023-07-21T17:40:31.758Z,19.0
2023-07-21T17:45:18.260Z,18.8
2023-07-21T17:50:24.383Z,18.1
2023-07-21T17:55:30.357Z,17.5
2023-07-21T18:00:20.172Z,17.1
2023-07-21T18:05:24.742Z,16.7
2023-07-21T18:10:30.779Z,16.6
2023-07-21T18:15:19.863Z,16.5
2023-07-21T18:20:27.216Z,16.6
2023-07-21T18:25:33.354Z,16.6
2023-07-21T18:30:21.408Z,16.5
2023-07-21T18:35:27.647Z,16.5
2023-07-21T18:40:36.770Z,16.4
2023-07-21T18:45:22.599Z,16.4
2023-07-21T18:50:28.640Z,16.4
2023-07-21T18:55:17.684Z,16.4
2023-07-21T19:00:26.489Z,16.2
2023-07-21T19:05:29.481Z,16.2
2023-07-21T19:10:18.175Z,16.1
2023-07-21T19:15:25.233Z,16.1
2023-07-21T19:20:32.019Z,16.0
2023-07-21T19:25:19.029Z,16.0
2023-07-21T19:30:26.015Z,16.0
2023-07-21T19:35:31.086Z,15.9
2023-07-21T19:40:21.976Z,15.9
2023-07-21T19:45:26.251Z,15.9
2023-07-21T19:50:33.052Z,15.8
2023-07-21T19:55:21.292Z,15.7
2023-07-21T20:00:30.006Z,15.6
2023-07-21T20:05:33.020Z,15.4
2023-07-21T20:10:21.776Z,15.2
2023-07-21T20:15:27.850Z,15.0
2023-07-21T20:20:17.383Z,14.9
2023-07-21T20:25:23.214Z,14.7
2023-07-21T20:30:29.442Z,14.6
2023-07-21T20:35:18.343Z,14.4
2023-07-21T20:40:27.456Z,14.3
2023-07-21T20:45:30.423Z,14.2
2023-07-21T20:50:19.433Z,14.1
2023-07-21T20:55:25.606Z,14.0
2023-07-21T21:00:34.410Z,14.0
2023-07-21T21:05:20.252Z,13.9
2023-07-21T21:10:26.279Z,13.8
2023-07-21T21:15:33.182Z,13.8
2023-07-21T21:20:21.672Z,13.8
2023-07-21T21:25:26.880Z,13.8
2023-07-21T21:30:33.039Z,13.8
2023-07-21T21:35:21.799Z,13.8
2023-07-21T21:40:30.244Z,13.7
2023-07-21T21:45:17.267Z,13.6
2023-07-21T21:50:23.081Z,13.5
2023-07-21T21:55:29.090Z,13.4
2023-07-21T22:00:22.590Z,13.3
2023-07-21T22:05:25.278Z,13.1
2023-07-21T22:10:31.966Z,12.9
2023-07-21T22:15:20.352Z,12.8
2023-07-21T22:20:28.844Z,12.6
2023-07-21T22:25:36.227Z,12.4
2023-07-21T22:30:20.482Z,12.3
2023-07-21T22:35:26.312Z,12.1
2023-07-21T22:40:33.553Z,11.9
2023-07-21T22:45:21.328Z,11.8
2023-07-21T22:50:27.437Z,11.6
2023-07-21T22:55:34.543Z,11.5
2023-07-21T23:00:24.117Z,11.4
2023-07-21T23:05:28.200Z,11.2
2023-07-21T23:10:17.855Z,11.2
2023-07-21T23:15:23.086Z,11.1
2023-07-21T23:20:29.583Z,11.0
2023-07-21T23:25:18.299Z,11.1
2023-07-21T23:30:24.391Z,10.9
2023-07-21T23:35:30.456Z,11.0
2023-07-21T23:40:22.545Z,10.9
2023-07-21T23:45:25.500Z,10.9
2023-07-21T23:50:31.611Z,10.8
2023-07-21T23:55:20.702Z,10.6
